Time;durP1;ratioP1;P1;durP2;ratioP2;P2;SDS_P1;SDS_P2;PMS_P1;PMS_P2;Temp;Humidity;BMP_temperature;BMP_pressure;BME280_temperature;BME280_humidity;BME280_pressure;Samples;Min_cycle;Max_cycle;Signal;HPM_P1;HPM_P2
2023/04/16 00:02:24;;;;;;;109.80;68.20;;;;;;;6.93;75.24;100159.63;110955;1260;23752;-80
2023/04/16 00:05:15;;;;;;;85.10;66.70;;;;;;;6.96;75.36;100161.27;111014;1260;22062;-79
2023/04/16 00:08:23;;;;;;;106.50;58.90;;;;;;;7.00;75.42;100161.67;110968;1260;22021;-80
2023/04/16 00:11:14;;;;;;;66.50;54.60;;;;;;;7.02;75.54;100164.04;111312;1257;21976;-80
2023/04/16 00:14:07;;;;;;;63.60;53.40;;;;;;;7.09;75.67;100164.92;110708;1262;22049;-82
2023/04/16 00:17:08;;;;;;;73.30;54.10;;;;;;;7.13;75.68;100172.27;110890;1262;22006;-80
2023/04/16 00:20:18;;;;;;;63.30;52.30;;;;;;;7.16;75.71;100174.23;110835;1262;21943;-81
2023/04/16 00:26:43;;;;;;;66.70;50.80;;;;;;;7.21;75.91;100174.61;109545;1274;22017;-84
2023/04/16 00:29:32;;;;;;;74.00;45.70;;;;;;;7.25;76.03;100178.32;109600;1273;21979;-81
2023/04/16 00:32:33;;;;;;;83.00;49.70;;;;;;;7.28;76.01;100178.08;109777;1270;22009;-82
2023/04/16 00:35:31;;;;;;;74.80;50.40;;;;;;;7.34;76.23;100175.16;110059;1270;21999;-82
2023/04/16 00:38:52;;;;;;;79.00;48.90;;;;;;;7.41;76.34;100171.14;110101;1270;23706;-81
2023/04/16 00:41:49;;;;;;;80.30;53.50;;;;;;;7.45;76.26;100175.38;110253;1265;24281;-81
2023/04/16 00:44:36;;;;;;;69.40;52.70;;;;;;;7.50;76.54;100181.63;110283;1264;22455;-80
2023/04/16 00:47:39;;;;;;;71.70;53.10;;;;;;;7.57;76.65;100185.24;110551;1265;22201;-80
2023/04/16 00:50:42;;;;;;;;;;;;;;;;;;;;;
2023/04/16 00:53:34;;;;;;;64.80;49.30;;;;;;;7.69;76.67;100188.56;110440;1265;21967;-81
2023/04/16 00:56:32;;;;;;;68.30;51.10;;;;;;;7.74;76.62;100189.96;110581;1257;22057;-81
2023/04/16 00:59:23;;;;;;;67.30;51.90;;;;;;;7.77;76.52;100191.95;111182;1257;22035;-82
2023/04/16 01:05:16;;;;;;;71.70;51.50;;;;;;;7.84;76.56;100192.96;111028;1257;21961;-81
2023/04/16 01:08:16;;;;;;;78.40;49.90;;;;;;;7.88;76.52;100195.98;111089;1255;24117;-79
2023/04/16 01:10:59;;;;;;;56.60;45.70;;;;;;;7.89;76.39;100192.83;111257;1257;23505;-80
2023/04/16 01:17:20;;;;;;;54.50;42.20;;;;;;;7.89;76.40;100196.98;111225;1257;24866;-83
2023/04/16 01:20:45;;;;;;;62.40;43.20;;;;;;;7.87;76.48;100199.13;110676;1265;21964;-80
2023/04/16 01:23:42;;;;;;;61.40;38.70;;;;;;;7.86;76.39;100197.77;110834;1265;23348;-81
2023/04/16 01:26:20;;;;;;;55.60;39.10;;;;;;;7.83;76.46;100198.20;110458;1264;22041;-84
2023/04/16 01:29:18;;;;;;;47.30;37.10;;;;;;;7.80;76.49;100198.99;110815;1263;22140;-83
2023/04/16 01:32:29;;;;;;;46.10;34.40;;;;;;;7.77;76.47;100195.96;110890;1264;21992;-81
2023/04/16 01:35:53;;;;;;;43.10;30.60;;;;;;;7.71;76.47;100196.83;110961;1263;22297;-81
2023/04/16 01:38:40;;;;;;;39.00;30.70;;;;;;;7.62;76.39;100200.35;111106;1261;21975;-81
2023/04/16 01:41:21;;;;;;;42.70;32.40;;;;;;;7.60;76.34;100202.33;111030;1262;21985;-81
2023/04/16 01:44:08;;;;;;;52.10;31.90;;;;;;;7.58;76.40;100199.95;110893;1257;21965;-80
2023/04/16 01:46:57;;;;;;;40.00;35.00;;;;;;;7.54;76.51;100199.36;110610;1261;22045;-81
2023/04/16 01:49:42;;;;;;;43.80;32.90;;;;;;;7.52;76.58;100199.58;110269;1267;21991;-82
2023/04/16 01:52:41;;;;;;;56.20;36.60;;;;;;;7.48;76.68;100197.44;109974;1271;21989;-82
2023/04/16 01:55:26;;;;;;;54.90;37.30;;;;;;;7.46;76.68;100200.61;110001;1271;21978;-81
2023/04/16 01:58:09;;;;;;;66.60;39.80;;;;;;;7.44;76.53;100206.56;109845;1270;21997;-81
2023/04/16 02:00:48;;;;;;;75.00;44.50;;;;;;;7.42;76.59;100211.29;109807;1269;23723;-81
2023/04/16 02:03:40;;;;;;;77.50;46.50;;;;;;;7.40;76.47;100214.45;109902;1267;21953;-81
2023/04/16 02:06:33;;;;;;;90.30;44.20;;;;;;;7.34;76.37;100212.70;110169;1267;23666;-81
2023/04/16 02:09:49;;;;;;;91.00;47.30;;;;;;;7.27;76.63;100211.49;110916;1257;22716;-82
2023/04/16 02:12:55;;;;;;;71.80;45.60;;;;;;;7.26;76.91;100212.04;111158;1260;24561;-81
2023/04/16 02:16:01;;;;;;;72.20;42.50;;;;;;;7.30;77.02;100213.02;111022;1260;21973;-82
2023/04/16 02:19:00;;;;;;;75.60;39.70;;;;;;;7.34;77.24;100215.66;110968;1260;22057;-81
2023/04/16 02:21:43;;;;;;;75.50;39.10;;;;;;;7.39;77.27;100214.65;111103;1260;21971;-81
2023/04/16 02:24:36;;;;;;;81.40;36.50;;;;;;;7.42;77.31;100215.97;110865;1260;21981;-81
2023/04/16 02:27:29;;;;;;;59.20;36.00;;;;;;;7.44;77.31;100221.80;111032;1260;24508;-81
2023/04/16 02:30:18;;;;;;;62.10;38.40;;;;;;;7.46;77.39;100223.48;110910;1260;21983;-82
2023/04/16 02:33:06;;;;;;;81.70;38.10;;;;;;;7.51;77.47;100225.25;110874;1260;24283;-80
2023/04/16 02:36:09;;;;;;;74.40;39.10;;;;;;;7.54;77.40;100224.30;110352;1266;21961;-81
2023/04/16 02:38:54;;;;;;;89.20;39.00;;;;;;;7.58;77.53;100223.13;110760;1262;23573;-81
2023/04/16 02:41:35;;;;;;;88.80;44.10;;;;;;;7.63;77.56;100224.75;110772;1263;23044;-81
2023/04/16 02:44:18;;;;;;;73.90;45.60;;;;;;;7.66;77.59;100223.63;110616;1263;21967;-80
2023/04/16 02:47:07;;;;;;;58.70;42.70;;;;;;;7.67;77.65;100228.80;110752;1263;22659;-81
2023/04/16 02:49:59;;;;;;;61.70;37.80;;;;;;;7.69;77.69;100228.22;110916;1263;21972;-80
2023/04/16 02:52:45;;;;;;;63.00;37.90;;;;;;;7.75;77.70;100231.16;110662;1264;21977;-80
2023/04/16 02:55:22;;;;;;;65.70;33.20;;;;;;;7.79;77.70;100231.91;110919;1263;21983;-78
2023/04/16 02:58:23;;;;;;;44.20;32.60;;;;;;;7.80;77.68;100231.89;110355;1267;23410;-81
2023/04/16 03:01:06;;;;;;;44.00;32.30;;;;;;;7.82;77.71;100230.95;110459;1267;21972;-80
2023/04/16 03:03:47;;;;;;;44.80;29.60;;;;;;;7.85;77.76;100226.20;110507;1267;21994;-80
2023/04/16 03:06:27;;;;;;;44.10;29.10;;;;;;;7.86;77.68;100225.84;110204;1267;22341;-81
2023/04/16 03:09:17;;;;;;;37.80;28.50;;;;;;;7.85;77.68;100230.38;109865;1270;21982;-79
2023/04/16 03:12:09;;;;;;;36.90;24.70;;;;;;;7.84;77.87;100231.60;109802;1270;22073;-81
2023/04/16 03:15:00;;;;;;;39.30;28.90;;;;;;;7.84;77.87;100231.79;109945;1266;21999;-81
2023/04/16 03:17:48;;;;;;;41.60;29.70;;;;;;;7.83;77.80;100233.36;110281;1254;21997;-80
2023/04/16 03:20:44;;;;;;;38.20;29.60;;;;;;;7.77;77.80;100229.55;110533;1266;21989;-82
2023/04/16 03:23:37;;;;;;;46.60;27.90;;;;;;;7.73;77.88;100238.65;109896;1270;21969;-82
2023/04/16 03:26:25;;;;;;;42.50;29.60;;;;;;;7.73;78.11;100244.58;109571;1269;21862;-83
2023/04/16 03:29:13;;;;;;;31.60;28.10;;;;;;;7.75;78.19;100247.08;110279;1268;22967;-83
2023/04/16 03:32:05;;;;;;;32.30;28.80;;;;;;;7.77;78.23;100252.41;109943;1269;22066;-81
2023/04/16 03:35:01;;;;;;;37.70;33.80;;;;;;;7.82;78.44;100257.13;109832;1265;23045;-82
2023/04/16 03:37:40;;;;;;;36.10;30.30;;;;;;;7.87;78.49;100262.88;110532;1265;23049;-79
2023/04/16 03:40:18;;;;;;;37.00;28.10;;;;;;;7.92;78.36;100265.35;110216;1265;21973;-80
2023/04/16 03:43:04;;;;;;;;;;;;;;;7.94;78.23;100268.56;110151;1270;23590;-80
2023/04/16 03:45:56;;;;;;;46.60;28.30;;;;;;;7.85;78.33;100269.00;109302;1276;22998;-81
2023/04/16 03:48:56;;;;;;;38.00;28.00;;;;;;;7.80;78.42;100275.54;109415;1276;21994;-82
2023/04/16 03:52:10;;;;;;;40.80;28.30;;;;;;;7.77;78.22;100274.41;109711;1272;22166;-80
2023/04/16 03:54:55;;;;;;;40.40;30.00;;;;;;;7.76;78.28;100277.91;109716;1269;22244;-81
2023/04/16 03:58:04;;;;;;;;;;;;;;;;;;;;;
2023/04/16 04:01:19;;;;;;;56.90;29.90;;;;;;;7.77;78.46;100278.38;110178;1266;22311;-82
2023/04/16 04:04:15;;;;;;;44.00;34.00;;;;;;;7.80;78.33;100278.84;110626;1260;22778;-82
2023/04/16 04:07:21;;;;;;;48.20;34.50;;;;;;;7.82;78.46;100281.55;111134;1260;23217;-83
2023/04/16 04:10:05;;;;;;;52.10;33.60;;;;;;;7.86;78.49;100280.91;111068;1258;22030;-81
2023/04/16 04:12:47;;;;;;;66.40;45.90;;;;;;;7.87;78.36;100283.66;110396;1266;21978;-82
2023/04/16 04:15:43;;;;;;;66.80;43.30;;;;;;;7.87;78.42;100290.42;109645;1271;21979;-81
2023/04/16 04:18:37;;;;;;;61.10;44.10;;;;;;;7.85;78.29;100298.64;109790;1271;21980;-80
2023/04/16 04:21:18;;;;;;;53.60;36.40;;;;;;;7.83;78.18;100309.94;109680;1267;22015;-80
2023/04/16 04:23:58;;;;;;;47.00;33.40;;;;;;;7.81;78.17;100313.64;109645;1271;23754;-81
2023/04/16 04:26:36;;;;;;;50.70;38.80;;;;;;;7.79;78.07;100316.63;109777;1271;24282;-81
2023/04/16 04:30:02;;;;;;;54.50;35.60;;;;;;;7.75;78.25;100318.14;109244;1277;21985;-82
2023/04/16 04:32:56;;;;;;;49.40;37.60;;;;;;;7.74;78.24;100320.05;109453;1273;23603;-81
2023/04/16 04:35:59;;;;;;;;;;;;;;;;;;;;;
2023/04/16 04:42:05;;;;;;;52.30;38.40;;;;;;;7.87;78.38;100326.48;110571;1263;21995;-80
2023/04/16 04:44:57;;;;;;;64.80;47.20;;;;;;;7.84;78.34;100322.91;110933;1263;22073;-78
2023/04/16 04:47:46;;;;;;;56.10;46.60;;;;;;;7.83;78.46;100324.67;110523;1257;21969;-80
2023/04/16 04:50:43;;;;;;;59.00;51.40;;;;;;;7.85;78.47;100326.86;110680;1261;23735;-79
2023/04/16 04:53:33;;;;;;;53.00;40.40;;;;;;;7.85;78.33;100328.45;110809;1261;23824;-79
2023/04/16 04:56:44;;;;;;;42.00;35.30;;;;;;;7.79;78.27;100331.71;110912;1262;21963;-82
2023/04/16 04:59:51;;;;;;;34.70;29.60;;;;;;;7.75;78.44;100335.11;110479;1265;22015;-81
2023/04/16 05:02:37;;;;;;;39.70;29.60;;;;;;;7.74;78.41;100337.20;110419;1265;22011;-78
2023/04/16 05:05:32;;;;;;;;;;;;;;;;;;;;;
2023/04/16 05:08:18;;;;;;;42.40;29.20;;;;;;;7.73;78.39;100340.69;110564;1261;23103;-81
2023/04/16 05:11:09;;;;;;;36.90;29.80;;;;;;;7.72;78.24;100343.33;109943;1254;21979;-82
2023/04/16 05:13:51;;;;;;;37.70;31.60;;;;;;;7.71;78.32;100346.98;110419;1267;22440;-81
2023/04/16 05:17:00;;;;;;;;;;;;;;;;;;;;;
2023/04/16 05:20:11;;;;;;;38.20;32.70;;;;;;;7.77;78.79;100358.94;110620;1264;22171;-81
2023/04/16 05:23:34;;;;;;;45.40;39.10;;;;;;;7.83;78.91;100365.56;110568;1264;21979;-82
2023/04/16 05:26:18;;;;;;;49.00;43.50;;;;;;;7.93;79.20;100368.92;110088;1263;22739;-79
2023/04/16 05:29:08;;;;;;;53.20;44.10;;;;;;;8.04;79.22;100370.70;110770;1262;21967;-80
2023/04/16 05:32:16;;;;;;;51.50;43.00;;;;;;;8.11;79.00;100373.30;110608;1266;21979;-81
2023/04/16 05:35:14;;;;;;;54.10;44.10;;;;;;;8.20;79.30;100374.96;110405;1266;21956;-80
2023/04/16 05:38:09;;;;;;;57.30;43.50;;;;;;;8.36;79.40;100375.73;110151;1268;23599;-81
2023/04/16 05:41:08;;;;;;;;;;;;;;;8.53;79.19;100378.77;110321;1268;23062;-81
2023/04/16 05:43:58;;;;;;;54.60;47.90;;;;;;;8.56;79.42;100381.62;110583;1268;22007;-81
2023/04/16 05:47:06;;;;;;;55.00;48.80;;;;;;;8.69;79.42;100380.20;110219;1268;23782;-81
2023/04/16 05:49:54;;;;;;;55.60;49.50;;;;;;;8.85;79.30;100381.27;109878;1270;22205;-78
2023/04/16 05:52:54;;;;;;;59.70;52.40;;;;;;;9.05;79.48;100384.67;110351;1269;23716;-79
2023/04/16 05:55:36;;;;;;;54.70;49.00;;;;;;;9.30;79.41;100387.86;109506;1269;21998;-79
2023/04/16 05:58:21;;;;;;;55.30;48.70;;;;;;;9.44;79.11;100387.79;109910;1269;24433;-81
2023/04/16 06:00:56;;;;;;;56.80;49.20;;;;;;;9.53;78.56;100386.96;109884;1269;21981;-82
2023/04/16 06:03:29;;;;;;;56.30;47.50;;;;;;;9.64;78.37;100387.61;109832;1269;21982;-80
2023/04/16 06:06:07;;;;;;;;;;;;;;;9.78;78.17;100392.20;110124;1269;22016;-79
2023/04/16 06:08:48;;;;;;;52.60;45.60;;;;;;;9.81;78.00;100395.77;110102;1269;21993;-80
2023/04/16 06:11:22;;;;;;;51.00;45.80;;;;;;;9.86;77.59;100397.49;109608;1269;23693;-78
2023/04/16 06:13:55;;;;;;;53.20;47.40;;;;;;;9.92;77.16;100400.77;110297;1257;21959;-79
2023/04/16 06:16:32;;;;;;;56.30;49.90;;;;;;;9.94;76.58;100405.05;110932;1257;22658;-79
2023/04/16 06:19:07;;;;;;;52.30;46.70;;;;;;;9.99;76.59;100406.61;110851;1263;21945;-80
2023/04/16 06:21:46;;;;;;;48.60;43.50;;;;;;;10.09;76.53;100407.66;110512;1263;22913;-80
2023/04/16 06:24:28;;;;;;;47.40;42.70;;;;;;;10.15;76.16;100412.49;110804;1263;21976;-79
2023/04/16 06:27:20;;;;;;;46.90;42.20;;;;;;;10.15;75.79;100421.88;110532;1258;277231;-80
2023/04/16 06:29:59;;;;;;;46.90;42.10;;;;;;;10.18;75.56;100427.88;110719;1263;21972;-80
2023/04/16 06:32:44;;;;;;;46.90;42.00;;;;;;;10.16;75.12;100428.44;110837;1263;21980;-79
2023/04/16 06:35:21;;;;;;;50.10;45.20;;;;;;;10.17;74.93;100434.35;110755;1263;23666;-80
2023/04/16 06:38:05;;;;;;;48.30;43.30;;;;;;;10.19;74.67;100437.58;111028;1256;21976;-79
2023/04/16 06:40:58;;;;;;;;;;;;;;;;;;;;;
2023/04/16 06:43:44;;;;;;;49.60;44.80;;;;;;;10.19;74.41;100435.84;111505;1255;22718;-79
2023/04/16 06:46:31;;;;;;;49.30;44.40;;;;;;;10.21;74.35;100437.67;111187;1257;22472;-79
2023/04/16 06:49:15;;;;;;;53.00;47.60;;;;;;;10.26;74.27;100436.65;110874;1257;23726;-79
2023/04/16 06:51:50;;;;;;;55.80;50.00;;;;;;;10.27;73.93;100436.43;110642;1262;23717;-79
2023/04/16 06:55:09;;;;;;;50.00;45.00;;;;;;;10.24;73.69;100438.61;110223;1268;22013;-82
2023/04/16 06:57:55;;;;;;;58.80;53.10;;;;;;;10.32;73.91;100437.67;109909;1268;23657;-80
2023/04/16 07:01:06;;;;;;;48.90;44.50;;;;;;;10.44;74.03;100441.77;110346;1268;21992;-79
2023/04/16 07:04:46;;;;;;;49.50;44.50;;;;;;;10.62;74.24;100446.17;110781;1247;21934;31
2023/04/16 07:07:34;;;;;;;48.00;43.30;;;;;;;10.93;74.83;100447.82;111070;1266;21975;-78
2023/04/16 07:10:21;;;;;;;46.00;41.40;;;;;;;11.23;74.25;100442.48;110364;1266;23044;-80
2023/04/16 07:13:00;;;;;;;43.80;39.40;;;;;;;11.43;73.42;100446.06;110278;1266;23798;-81
2023/04/16 07:16:15;;;;;;;40.60;36.50;;;;;;;11.49;72.16;100450.88;110323;1264;22199;-80
2023/04/16 07:19:08;;;;;;;38.60;34.70;;;;;;;11.58;71.86;100453.66;109394;1274;21986;-80
2023/04/16 07:21:43;;;;;;;36.60;33.10;;;;;;;11.70;71.52;100453.35;109393;1276;22075;-81
2023/04/16 07:24:20;;;;;;;41.00;36.60;;;;;;;11.77;71.06;100453.05;109305;1276;21986;-80
2023/04/16 07:27:01;;;;;;;37.20;33.80;;;;;;;11.86;70.70;100451.83;109165;1281;24113;-81
2023/04/16 07:30:00;;;;;;;;;;;;;;;;;;;;;
2023/04/16 07:32:54;;;;;;;37.50;34.00;;;;;;;11.92;69.70;100449.49;109053;1281;22561;-80
2023/04/16 07:35:44;;;;;;;38.50;34.80;;;;;;;11.92;69.03;100450.54;109140;1280;22196;-82
2023/04/16 07:38:47;;;;;;;38.20;34.70;;;;;;;11.90;68.81;100454.96;109464;1276;21829;-80
2023/04/16 07:44:33;;;;;;;39.50;35.70;;;;;;;12.03;68.69;100461.23;109604;1271;21965;-80
2023/04/16 07:47:09;;;;;;;38.00;34.50;;;;;;;12.04;68.10;100462.09;109938;1261;21983;-80
2023/04/16 07:50:20;;;;;;;39.40;35.80;;;;;;;12.03;67.71;100465.42;109983;1265;23678;-79
2023/04/16 07:53:28;;;;;;;35.90;32.70;;;;;;;11.99;67.53;100464.54;110147;1266;21973;-80
2023/04/16 07:56:15;;;;;;;39.00;35.30;;;;;;;11.97;67.25;100465.67;110302;1266;22003;-79
2023/04/16 07:59:10;;;;;;;36.80;33.20;;;;;;;12.03;67.43;100465.80;110204;1266;22011;-82
2023/04/16 08:02:15;;;;;;;33.40;30.20;;;;;;;12.14;67.62;100471.42;110510;1265;21996;-80
2023/04/16 08:05:16;;;;;;;34.00;30.80;;;;;;;12.25;67.29;100470.09;110511;1265;21971;-81
2023/04/16 08:08:05;;;;;;;33.40;30.40;;;;;;;12.39;67.08;100468.06;109955;1265;21995;-79
2023/04/16 08:11:21;;;;;;;33.80;30.60;;;;;;;12.62;67.38;100468.11;110249;1266;21983;-79
2023/04/16 08:14:29;;;;;;;27.30;24.90;;;;;;;13.16;68.09;100470.08;110507;1265;22160;-80
2023/04/16 08:17:33;;;;;;;29.40;26.80;;;;;;;13.64;66.58;100474.62;109907;1269;21992;-80
2023/04/16 08:20:21;;;;;;;26.40;24.00;;;;;;;13.90;64.81;100475.98;109811;1268;22442;-83
2023/04/16 08:23:06;;;;;;;28.10;25.70;;;;;;;14.02;63.34;100479.55;110093;1269;22197;-79
2023/04/16 08:25:44;;;;;;;24.70;22.50;;;;;;;14.12;62.46;100486.63;109799;1269;23723;-79
2023/04/16 08:28:20;;;;;;;23.30;21.30;;;;;;;14.12;61.52;100490.32;109989;1269;21990;-80
2023/04/16 08:30:54;;;;;;;25.10;22.90;;;;;;;14.05;60.75;100490.27;109440;1272;21979;-78
2023/04/16 08:33:25;;;;;;;26.70;24.30;;;;;;;13.95;60.07;100492.51;109415;1272;22987;-78
2023/04/16 08:35:58;;;;;;;25.50;23.40;;;;;;;13.88;60.06;100501.42;109603;1268;22178;-78
2023/04/16 08:38:49;;;;;;;25.10;22.90;;;;;;;13.84;60.12;100504.80;109697;1268;22634;-82
2023/04/16 08:41:50;;;;;;;29.50;27.00;;;;;;;13.79;60.27;100509.56;109917;1268;21988;-78
2023/04/16 08:44:50;;;;;;;23.50;21.50;;;;;;;13.75;60.23;100512.73;110001;1268;23599;-79
2023/04/16 08:47:30;;;;;;;21.60;19.40;;;;;;;13.70;59.87;100514.05;110277;1268;22952;-80
2023/04/16 08:50:13;;;;;;;22.10;20.30;;;;;;;13.52;59.20;100512.60;110360;1266;21973;-79
2023/04/16 08:53:07;;;;;;;21.90;19.90;;;;;;;13.45;59.89;100518.90;110873;1265;21981;-80
2023/04/16 08:56:04;;;;;;;20.90;19.20;;;;;;;13.46;60.10;100520.23;110334;1264;23733;-79
2023/04/16 08:58:45;;;;;;;21.50;19.50;;;;;;;13.52;59.90;100522.95;109749;1270;21977;-79
2023/04/16 09:01:40;;;;;;;21.00;19.30;;;;;;;13.57;59.63;100523.74;109733;1270;22733;-80
2023/04/16 09:04:40;;;;;;;22.90;20.80;;;;;;;13.69;60.02;100525.98;109405;1273;22012;-80
2023/04/16 09:07:30;;;;;;;17.80;16.20;;;;;;;13.96;59.88;100525.90;108772;1276;23080;-78
2023/04/16 09:10:02;;;;;;;17.10;15.60;;;;;;;14.09;59.07;100531.05;108717;1281;23023;-80
2023/04/16 09:13:01;;;;;;;17.10;15.60;;;;;;;14.16;58.32;100537.36;108750;1281;24416;-79
2023/04/16 09:15:46;;;;;;;18.30;16.90;;;;;;;14.22;58.31;100538.09;108908;1281;23767;-79
2023/04/16 09:18:33;;;;;;;17.00;15.60;;;;;;;14.35;58.53;100540.06;108702;1281;21997;-79
2023/04/16 09:21:06;;;;;;;16.40;14.40;;;;;;;14.41;57.77;100540.10;108342;1287;23070;-79
2023/04/16 09:23:40;;;;;;;16.00;14.60;;;;;;;14.34;57.03;100541.18;108429;1282;22165;-79
2023/04/16 09:26:16;;;;;;;17.20;15.70;;;;;;;14.36;57.40;100541.94;108951;1277;23734;-79
2023/04/16 09:28:56;;;;;;;26.70;24.20;;;;;;;14.41;57.00;100546.59;109139;1277;23740;-79
2023/04/16 09:31:42;;;;;;;19.20;15.90;;;;;;;14.47;56.77;100551.17;108776;1282;22003;-79
2023/04/16 09:34:54;;;;;;;24.20;17.00;;;;;;;14.40;56.28;100554.14;108946;1281;22011;-81
2023/04/16 09:37:48;;;;;;;16.60;15.10;;;;;;;14.34;56.12;100558.86;109147;1276;22019;-81
2023/04/16 09:40:29;;;;;;;16.60;15.10;;;;;;;14.34;56.30;100558.69;109317;1271;21977;-79
2023/04/16 09:43:18;;;;;;;17.90;16.40;;;;;;;14.40;56.49;100556.25;109427;1272;21844;-80
2023/04/16 09:46:12;;;;;;;16.20;14.80;;;;;;;14.75;57.52;100559.73;109579;1271;22322;-80
2023/04/16 09:48:47;;;;;;;18.10;16.40;;;;;;;15.12;56.95;100556.80;109724;1266;22442;-78
2023/04/16 09:51:25;;;;;;;17.90;16.30;;;;;;;15.36;55.72;100565.84;110249;1266;22992;-79
2023/04/16 09:54:11;;;;;;;19.30;17.50;;;;;;;15.42;54.59;100565.14;110309;1262;23349;-78
2023/04/16 09:57:00;;;;;;;17.60;16.10;;;;;;;15.40;54.13;100567.73;109981;1266;21992;-79
2023/04/16 10:00:02;;;;;;;16.60;15.20;;;;;;;15.32;53.58;100569.56;110158;1266;23631;-78
2023/04/16 10:07:08;;;;;;;15.10;13.80;;;;;;;15.18;53.90;100575.77;109389;1276;21961;-83
2023/04/16 10:10:20;;;;;;;18.10;16.40;;;;;;;15.34;53.89;100579.11;109364;1276;22021;-80
2023/04/16 10:13:16;;;;;;;17.20;15.70;;;;;;;15.50;53.38;100579.44;109413;1276;23039;-83
2023/04/16 10:16:34;;;;;;;16.00;14.60;;;;;;;15.62;52.81;100584.58;109099;1277;22008;-83
2023/04/16 10:19:23;;;;;;;15.40;14.10;;;;;;;15.70;52.60;100585.38;109329;1277;22748;-81
2023/04/16 10:22:33;;;;;;;14.90;13.60;;;;;;;15.88;52.39;100586.36;109126;1282;23091;-81
2023/04/16 10:25:30;;;;;;;13.60;12.50;;;;;;;16.09;52.11;100588.29;109044;1273;22012;-79
2023/04/16 10:28:35;;;;;;;15.30;13.90;;;;;;;16.26;51.16;100586.31;109175;1276;21981;-81
2023/04/16 10:31:51;;;;;;;15.60;14.00;;;;;;;16.73;52.01;100586.02;109219;1272;21995;-81
2023/04/16 10:34:47;;;;;;;14.30;13.10;;;;;;;17.47;51.25;100586.06;109409;1274;24436;-81
2023/04/16 10:37:44;;;;;;;14.10;12.90;;;;;;;17.87;48.01;100589.16;109272;1273;22426;-81
2023/04/16 10:40:37;;;;;;;14.00;12.80;;;;;;;18.01;47.34;100587.41;109873;1270;22000;-80
2023/04/16 10:43:40;;;;;;;14.60;13.30;;;;;;;18.11;46.36;100587.67;110389;1266;21955;-81
2023/04/16 10:46:48;;;;;;;15.10;13.70;;;;;;;17.96;45.78;100587.90;110214;1266;21974;-80
2023/04/16 10:49:45;;;;;;;13.40;12.30;;;;;;;17.72;45.62;100587.86;110198;1266;24301;-81
2023/04/16 10:52:28;;;;;;;13.60;12.40;;;;;;;17.55;46.12;100586.80;110221;1266;22114;-81
2023/04/16 10:55:30;;;;;;;13.10;11.80;;;;;;;17.49;46.16;100587.88;109514;1271;21994;-82
2023/04/16 10:58:36;;;;;;;13.10;12.00;;;;;;;17.34;46.23;100585.63;109455;1272;22042;-80
2023/04/16 11:01:18;;;;;;;13.80;12.70;;;;;;;17.21;46.34;100583.27;109081;1276;23040;-79
2023/04/16 11:04:23;;;;;;;13.80;12.60;;;;;;;17.06;46.29;100579.84;109495;1273;21991;-82
2023/04/16 11:07:54;;;;;;;13.20;12.00;;;;;;;16.86;46.82;100581.19;109424;1276;21987;-86
2023/04/16 11:10:53;;;;;;;13.70;11.90;;;;;;;16.82;47.22;100585.48;108784;1283;24352;-83
2023/04/16 11:13:30;;;;;;;15.00;13.90;;;;;;;16.92;47.40;100588.91;108876;1281;22747;-79
2023/04/16 11:16:08;;;;;;;14.40;13.20;;;;;;;16.96;47.17;100590.80;108976;1273;23840;-82
2023/04/16 11:19:00;;;;;;;13.70;12.60;;;;;;;16.90;47.28;100589.75;109018;1281;21967;-78
2023/04/16 11:22:01;;;;;;;13.30;12.20;;;;;;;16.84;46.93;100590.27;108770;1285;22031;-84
2023/04/16 11:25:35;;;;;;;11.80;10.70;;;;;;;16.75;46.74;100589.90;108918;1284;23064;-83
2023/04/16 11:28:45;;;;;;;13.70;12.60;;;;;;;16.72;47.08;100591.33;108776;1285;22007;-82
2023/04/16 11:31:53;;;;;;;9.10;8.40;;;;;;;16.82;47.50;100589.91;108556;1287;24347;-81
2023/04/16 11:34:29;;;;;;;12.30;11.20;;;;;;;16.80;47.01;100589.47;108159;1292;23151;-80
2023/04/16 11:38:05;;;;;;;11.40;10.50;;;;;;;16.72;46.81;100589.06;108319;1291;22065;-80
2023/04/16 11:42:20;;;;;;;13.00;11.90;;;;;;;16.51;46.92;100590.29;109081;1280;22940;-81
2023/04/16 11:45:59;;;;;;;12.40;11.40;;;;;;;16.34;46.99;100591.80;109164;1282;22042;-81
2023/04/16 11:49:38;;;;;;;13.10;12.00;;;;;;;16.16;47.56;100588.27;109090;1283;22600;-83
2023/04/16 11:52:13;;;;;;;15.60;13.80;;;;;;;16.21;47.91;100591.30;108785;1278;22453;-76
2023/04/16 11:54:49;;;;;;;12.70;11.70;;;;;;;16.31;48.31;100590.72;108890;1276;21988;-77
2023/04/16 11:57:35;;;;;;;12.90;11.70;;;;;;;16.36;47.77;100592.38;108921;1274;21980;-78
2023/04/16 12:00:13;;;;;;;11.40;10.50;;;;;;;16.36;47.36;100590.42;109096;1278;21993;-78
2023/04/16 12:02:54;;;;;;;9.40;8.70;;;;;;;16.35;47.12;100591.41;108878;1278;23605;-82
2023/04/16 12:06:15;;;;;;;10.00;8.10;;;;;;;16.29;46.82;100587.73;109256;1277;21994;-83
2023/04/16 12:09:22;;;;;;;8.10;7.30;;;;;;;16.16;46.80;100589.67;109588;1276;24298;-84
2023/04/16 12:12:41;;;;;;;11.80;10.30;;;;;;;16.10;46.83;100590.40;109397;1276;22049;-81
2023/04/16 12:15:20;;;;;;;8.70;8.00;;;;;;;16.10;46.66;100594.73;109120;1276;22013;-81
2023/04/16 12:18:12;;;;;;;9.40;8.60;;;;;;;16.04;46.06;100592.83;109251;1271;21992;-83
2023/04/16 12:21:08;;;;;;;12.70;11.50;;;;;;;16.00;46.24;100591.29;109790;1271;22006;-82
2023/04/16 12:24:26;;;;;;;10.00;9.10;;;;;;;16.05;47.00;100584.84;109372;1276;23783;-82
2023/04/16 12:27:21;;;;;;;9.50;8.70;;;;;;;16.20;47.06;100584.71;109348;1276;22007;-82
2023/04/16 12:30:23;;;;;;;8.60;7.20;;;;;;;16.24;47.29;100581.45;109453;1273;22022;-81
2023/04/16 12:33:29;;;;;;;7.00;6.30;;;;;;;16.21;46.71;100582.73;109355;1276;21989;-82
2023/04/16 12:36:21;;;;;;;6.80;6.20;;;;;;;16.10;46.42;100584.04;109444;1276;22030;-83
2023/04/16 12:39:19;;;;;;;6.30;5.80;;;;;;;16.10;46.43;100581.96;109030;1281;22018;-82
2023/04/16 12:42:17;;;;;;;7.90;7.00;;;;;;;16.14;46.55;100582.42;109115;1281;22010;-82
2023/04/16 12:45:06;;;;;;;8.20;7.40;;;;;;;16.19;46.18;100580.02;109102;1280;22239;-81
2023/04/16 12:47:59;;;;;;;7.20;6.50;;;;;;;16.25;46.18;100575.65;109453;1277;21989;-83
2023/04/16 12:50:42;;;;;;;7.10;6.60;;;;;;;16.31;45.78;100578.27;109344;1277;23276;-82
2023/04/16 12:53:48;;;;;;;10.90;7.30;;;;;;;16.35;45.79;100577.70;109467;1277;21992;-81
2023/04/16 12:56:39;;;;;;;7.60;6.90;;;;;;;16.43;45.99;100582.32;109620;1272;22061;-82
2023/04/16 13:00:05;;;;;;;8.30;6.60;;;;;;;16.53;46.24;100580.50;109684;1272;23682;-84
2023/04/16 13:03:00;;;;;;;7.60;6.90;;;;;;;16.63;46.05;100575.90;110456;1261;22014;-81
2023/04/16 13:06:06;;;;;;;9.10;6.80;;;;;;;16.70;45.65;100577.75;110286;1267;22036;-83
2023/04/16 13:09:28;;;;;;;7.40;6.70;;;;;;;16.67;45.51;100578.27;110222;1267;22017;-83
2023/04/16 13:12:19;;;;;;;7.30;6.70;;;;;;;16.64;45.18;100582.11;110070;1267;21995;-83
2023/04/16 13:15:34;;;;;;;6.90;6.30;;;;;;;16.53;45.24;100581.58;110463;1267;22003;-83
2023/04/16 13:18:30;;;;;;;6.50;5.90;;;;;;;16.53;45.46;100577.52;110086;1267;23187;-82
2023/04/16 13:21:26;;;;;;;7.20;6.10;;;;;;;16.59;45.42;100576.46;110094;1267;22099;-80
2023/04/16 13:24:04;;;;;;;7.60;6.90;;;;;;;16.60;45.31;100581.52;110394;1267;22045;-82
2023/04/16 13:27:12;;;;;;;7.90;7.10;;;;;;;16.51;45.18;100579.55;110307;1267;21983;-83
2023/04/16 13:30:28;;;;;;;7.80;7.10;;;;;;;16.43;45.29;100577.57;110449;1264;23624;-84
2023/04/16 13:33:35;;;;;;;7.70;7.00;;;;;;;16.44;45.42;100577.20;109667;1273;22436;-81
2023/04/16 13:36:13;;;;;;;7.30;6.60;;;;;;;16.48;45.31;100568.84;109523;1273;22013;-83
2023/04/16 13:39:20;;;;;;;19.30;17.70;;;;;;;16.53;45.28;100569.92;109700;1273;23052;-82
2023/04/16 13:42:09;;;;;;;9.90;8.70;;;;;;;16.51;45.32;100574.27;109556;1273;21998;-84